Weather at Comfort Airpark

Public forecast

Using degrees Fahrenheit for public forecast. Weather courtesy of forecast.io.

Closest aviation weather report (METAR) to Comfort Airpark

Closest report is Kerrville Municipal Louis Schreiner Field, 8.1 nm (15.0 km) WNW. Retrieved 2020/11/24 17:40 UTC (0 seconds ago):

KERV 241740Z AUTO 19014G19KT 10SM SCT023 BKN030 OVC037 22/17 A2992 RMK AO2 T02220168

Closest aviation forecast (TAF) to Comfort Airpark

Closest forecast is San Antonio International Airport, 34.1 nm (63.2 km) SE. Retrieved 2020/11/24 12:22 UTC (5 hours ago):

TAF KSAT 241120Z 2412/2518 16007KT P6SM VCSH OVC009 FM241500 18010G18KT P6SM OVC009 FM241700 18011G20KT P6SM OVC013 FM241900 18011G20KT P6SM BKN040 FM250000 16007KT P6SM FEW250 FM251100 36006KT P6SM SCT250